Terminal Aerodrome Forecast
Issued by NWS

Home | Current Version | Previous Version | Text Only | Print | Product List | Glossary On
Versions: 1 2 3 4 5 6 7 8 9 10 11 12
000
FTUS46 KSGX 202300
TAFONT
TAF
KONT 202339Z 2100/2206 26010KT P6SM BKN040
     FM210200 VRB04KT P6SM BKN040
     FM210500 VRB04KT P6SM VCSH SCT025 OVC035
     FM211600 VRB04KT P6SM SCT025 BKN040
     FM212100 26010KT P6SM BKN040
     FM220200 VRB04KT P6SM SCT040=

USA.gov is the U.S. government's official web portal to all federal, state and local government web resources and services.